Time;durP1;ratioP1;P1;durP2;ratioP2;P2;SDS_P1;SDS_P2;PMS_P1;PMS_P2;Temp;Humidity;BMP_temperature;BMP_pressure;BME280_temperature;BME280_humidity;BME280_pressure;Samples;Min_cycle;Max_cycle;Signal;HPM_P1;HPM_P2
2021/07/22 00:00:26;;;;;;;8.32;6.15;;;;;;;16.84;62.06;99424.47;3607604;40;20048;-66
2021/07/22 00:02:54;;;;;;;10.57;6.15;;;;;;;16.92;62.08;99426.06;3606727;40;20032;-66
2021/07/22 00:05:23;;;;;;;7.75;6.20;;;;;;;16.94;61.96;99432.00;3606787;40;20044;-66
2021/07/22 00:07:51;;;;;;;8.48;6.47;;;;;;;17.01;61.85;99442.63;3607047;40;20040;-66
2021/07/22 00:10:20;;;;;;;7.38;6.68;;;;;;;16.91;62.26;99447.66;3606690;40;20052;-66
2021/07/22 00:12:48;;;;;;;11.85;7.03;;;;;;;16.67;62.92;99438.56;3607468;40;20032;-66
2021/07/22 00:15:16;;;;;;;8.50;7.03;;;;;;;16.44;63.38;99433.78;3607745;40;20039;-66
2021/07/22 00:17:44;;;;;;;9.38;7.03;;;;;;;16.41;63.43;99435.03;3603248;40;20051;-66
2021/07/22 00:20:12;;;;;;;8.07;6.78;;;;;;;16.42;63.40;99434.00;3607504;39;20103;-66
2021/07/22 00:22:41;;;;;;;7.82;6.97;;;;;;;16.37;63.47;99438.31;3599896;40;20059;-66
2021/07/22 00:25:10;;;;;;;8.02;6.75;;;;;;;16.40;63.53;99435.25;3600038;39;20052;-66
2021/07/22 00:27:38;;;;;;;11.48;7.13;;;;;;;16.40;63.73;99432.56;3600018;39;20048;-66
2021/07/22 00:30:07;;;;;;;11.20;7.05;;;;;;;16.41;63.78;99432.38;3598810;40;20080;-66
2021/07/22 00:32:35;;;;;;;7.85;7.10;;;;;;;16.40;64.24;99425.38;3599917;39;20047;-66
2021/07/22 00:35:03;;;;;;;9.05;7.28;;;;;;;16.29;64.09;99426.09;3625883;22;20045;-62
2021/07/22 00:37:32;;;;;;;7.07;6.38;;;;;;;16.19;64.24;99425.72;3588693;40;20057;-62
2021/07/22 00:40:01;;;;;;;9.52;6.65;;;;;;;16.24;64.45;99428.56;3589362;40;20032;-62
2021/07/22 00:42:55;;;;;;;8.25;6.82;;;;;;;16.27;64.63;99423.63;3588308;40;20050;-62
2021/07/22 00:45:23;;;;;;;8.60;6.68;;;;;;;16.13;64.61;99426.59;3588463;40;20060;-62
2021/07/22 00:47:51;;;;;;;7.10;6.40;;;;;;;16.17;64.86;99420.63;3589448;40;20049;-61
2021/07/22 00:50:19;;;;;;;9.85;6.80;;;;;;;16.20;64.61;99427.34;3588592;40;20056;-62
2021/07/22 00:52:47;;;;;;;10.43;6.80;;;;;;;16.28;64.21;99422.56;3589591;40;20048;-62
2021/07/22 00:55:17;;;;;;;9.20;7.00;;;;;;;16.35;63.90;99415.34;3588760;40;20053;-62
2021/07/22 00:57:45;;;;;;;8.45;6.85;;;;;;;16.38;64.01;99418.66;3589645;40;20048;-62
2021/07/22 01:00:14;;;;;;;10.95;6.60;;;;;;;16.41;63.87;99413.69;3589430;40;20048;-62
2021/07/22 01:02:43;;;;;;;8.77;6.97;;;;;;;16.36;63.68;99410.84;3589835;40;20044;-62
2021/07/22 01:05:12;;;;;;;8.20;7.22;;;;;;;16.28;64.02;99414.56;3589835;40;20113;-62
2021/07/22 01:07:41;;;;;;;8.93;6.55;;;;;;;16.25;64.01;99412.34;3588818;40;20402;-62
2021/07/22 01:10:10;;;;;;;7.95;6.85;;;;;;;16.27;64.32;99406.78;3589145;40;20048;-62
2021/07/22 01:12:41;;;;;;;9.13;7.15;;;;;;;16.32;63.89;99410.44;3588547;40;20279;-62
2021/07/22 01:15:09;;;;;;;8.43;6.60;;;;;;;16.30;63.98;99409.84;3589238;40;20044;-62
2021/07/22 01:17:43;;;;;;;7.55;6.85;;;;;;;16.07;63.81;99410.38;3588847;40;20060;-62
2021/07/22 01:20:17;;;;;;;10.80;7.40;;;;;;;15.87;65.33;99404.34;3588517;40;20048;-61
2021/07/22 01:22:45;;;;;;;9.27;7.80;;;;;;;15.87;65.53;99398.19;3589111;40;20405;-62
2021/07/22 01:25:14;;;;;;;11.50;8.48;;;;;;;15.80;65.03;99408.91;3589726;40;20110;-62
2021/07/22 01:27:43;;;;;;;10.27;7.75;;;;;;;15.64;65.21;99404.00;3589529;40;20060;-62
2021/07/22 01:30:14;;;;;;;8.98;7.50;;;;;;;15.42;66.31;99406.91;3589691;40;20028;-64
2021/07/22 01:32:42;;;;;;;9.77;7.25;;;;;;;15.26;66.83;99402.03;3590110;40;20052;-61
2021/07/22 01:35:13;;;;;;;9.00;7.90;;;;;;;15.23;66.88;99399.81;3590422;40;20041;-61
2021/07/22 01:37:44;;;;;;;9.13;8.10;;;;;;;15.27;66.89;99390.38;3589794;40;20055;-61
2021/07/22 01:40:14;;;;;;;9.05;7.18;;;;;;;15.22;67.08;99388.31;3589241;40;20048;-64
2021/07/22 01:42:43;;;;;;;10.88;8.15;;;;;;;15.14;67.28;99393.88;3590535;40;20087;-64
2021/07/22 01:45:12;;;;;;;9.38;7.25;;;;;;;15.06;67.16;99386.94;3592927;40;20048;-62
2021/07/22 01:47:44;;;;;;;9.52;7.30;;;;;;;14.99;67.57;99395.97;3592696;40;20074;-60
2021/07/22 01:50:13;;;;;;;7.45;6.60;;;;;;;15.06;68.21;99397.59;3589750;40;20439;-62
2021/07/22 01:52:43;;;;;;;11.43;8.75;;;;;;;15.02;68.39;99391.03;3589485;40;20075;-61
2021/07/22 01:55:12;;;;;;;9.25;7.50;;;;;;;15.03;68.26;99399.84;3589605;40;20397;-61
2021/07/22 01:57:52;;;;;;;8.65;7.25;;;;;;;15.10;68.04;99395.31;3589185;40;20349;-61
2021/07/22 02:00:23;;;;;;;7.95;7.13;;;;;;;15.10;67.75;99405.97;3588318;40;20340;-61
2021/07/22 02:02:57;;;;;;;9.90;7.88;;;;;;;15.11;67.81;99402.28;3592864;40;20056;-62
2021/07/22 02:05:32;;;;;;;7.85;7.00;;;;;;;15.08;67.61;99405.34;3592697;40;20052;-61
2021/07/22 02:08:01;;;;;;;8.68;7.38;;;;;;;15.02;67.82;99396.38;3591987;40;20401;-61
2021/07/22 02:10:29;;;;;;;8.18;6.80;;;;;;;14.96;68.21;99394.50;3589140;40;20476;-61
2021/07/22 02:12:58;;;;;;;11.50;7.90;;;;;;;14.94;67.97;99393.06;3587408;40;20049;-62
2021/07/22 02:15:39;;;;;;;10.77;7.28;;;;;;;15.01;67.87;99401.88;3587949;40;20052;-62
2021/07/22 02:18:07;;;;;;;8.55;7.32;;;;;;;14.98;67.60;99396.97;3587841;40;20060;-62
2021/07/22 02:20:36;;;;;;;7.85;7.05;;;;;;;14.92;68.23;99397.81;3587752;40;20044;-62
2021/07/22 02:23:06;;;;;;;9.23;7.45;;;;;;;14.97;68.11;99404.13;3589163;40;20436;-61
2021/07/22 02:26:04;;;;;;;8.77;6.80;;;;;;;14.84;67.99;99404.16;3577204;40;20044;-62
2021/07/22 02:28:32;;;;;;;10.40;6.93;;;;;;;14.95;68.29;99406.19;3588023;40;20060;-62
2021/07/22 02:31:00;;;;;;;8.95;7.10;;;;;;;15.05;67.61;99411.09;3588859;40;20328;-62
2021/07/22 02:33:28;;;;;;;10.20;7.60;;;;;;;15.09;67.46;99405.13;3587755;40;20383;-62
2021/07/22 02:35:57;;;;;;;8.73;7.53;;;;;;;15.15;67.26;99400.84;3587809;40;20133;-63
2021/07/22 02:38:46;;;;;;;11.23;7.28;;;;;;;15.18;67.46;99404.94;3589180;40;20384;-63
2021/07/22 02:41:14;;;;;;;9.32;7.93;;;;;;;15.07;66.93;99401.88;3591597;40;20045;-64
2021/07/22 02:43:42;;;;;;;7.75;6.95;;;;;;;14.99;67.38;99404.75;3590363;40;20045;-62
2021/07/22 02:46:12;;;;;;;8.40;7.30;;;;;;;14.84;67.87;99410.28;3590475;40;20048;-62
2021/07/22 02:49:00;;;;;;;9.45;8.05;;;;;;;14.72;67.89;99413.78;3588591;40;20078;-62
2021/07/22 02:51:32;;;;;;;8.85;7.57;;;;;;;14.64;68.23;99412.13;3588263;40;20029;-61
2021/07/22 02:54:06;;;;;;;11.65;8.00;;;;;;;14.59;68.37;99415.41;3587565;40;20114;-61
2021/07/22 02:56:34;;;;;;;8.90;7.22;;;;;;;14.45;68.75;99413.72;3587887;40;20418;-61
2021/07/22 02:59:05;;;;;;;10.43;7.78;;;;;;;14.24;69.18;99417.34;3587435;40;20025;-61
2021/07/22 03:01:35;;;;;;;9.55;8.10;;;;;;;14.30;69.25;99405.94;3587935;40;20382;-62
2021/07/22 03:04:07;;;;;;;11.55;8.05;;;;;;;14.33;69.67;99415.34;3588118;40;20056;-61
2021/07/22 03:06:45;;;;;;;10.30;9.10;;;;;;;14.33;69.02;99405.53;3588606;40;20033;-61
2021/07/22 03:09:14;;;;;;;9.55;7.50;;;;;;;14.29;69.21;99414.13;3587470;40;20329;-62
2021/07/22 03:11:46;;;;;;;14.45;8.50;;;;;;;14.22;69.16;99414.09;3588027;40;20330;-61
2021/07/22 03:14:14;;;;;;;12.30;7.13;;;;;;;14.18;69.34;99414.69;3588213;40;20053;-61
2021/07/22 03:16:43;;;;;;;10.63;7.65;;;;;;;14.18;69.51;99423.50;3589067;40;20029;-61
2021/07/22 03:19:16;;;;;;;10.38;9.23;;;;;;;14.19;69.39;99422.47;3587840;40;20055;-61
2021/07/22 03:21:54;;;;;;;9.57;8.07;;;;;;;14.16;69.24;99420.19;3588552;40;20322;-61
2021/07/22 03:24:44;;;;;;;10.20;8.20;;;;;;;14.09;69.69;99416.72;3587937;40;20430;-61
2021/07/22 03:27:38;;;;;;;12.88;8.02;;;;;;;14.05;69.29;99421.63;3587547;40;20386;-61
2021/07/22 03:30:13;;;;;;;11.70;7.88;;;;;;;14.09;69.71;99422.84;3587160;40;20040;-61
2021/07/22 03:32:49;;;;;;;9.93;7.53;;;;;;;14.19;69.24;99411.00;3587819;40;20044;-62
2021/07/22 03:35:17;;;;;;;13.20;9.05;;;;;;;14.30;69.44;99413.09;3588927;40;20047;-61
2021/07/22 03:37:44;;;;;;;13.07;8.30;;;;;;;14.39;68.47;99409.22;3588542;40;20048;-61
2021/07/22 03:40:22;;;;;;;12.68;9.63;;;;;;;14.41;68.67;99409.84;3586958;40;20057;-61
2021/07/22 03:42:50;;;;;;;9.45;7.97;;;;;;;14.42;68.60;99408.00;3588227;40;20044;-61
2021/07/22 03:45:25;;;;;;;8.77;7.88;;;;;;;14.39;68.31;99401.22;3587419;40;20048;-61
2021/07/22 03:47:59;;;;;;;12.15;8.80;;;;;;;14.29;67.99;99409.63;3587521;40;20396;-61
2021/07/22 03:50:27;;;;;;;11.65;9.20;;;;;;;14.20;68.65;99409.97;3587182;40;20045;-61
2021/07/22 03:52:56;;;;;;;11.48;10.30;;;;;;;14.14;68.75;99411.63;3588523;40;20084;-61
2021/07/22 03:55:27;;;;;;;18.42;10.43;;;;;;;14.13;68.98;99408.13;3587254;40;20029;-61
2021/07/22 03:58:14;;;;;;;11.82;8.77;;;;;;;14.17;68.85;99415.72;3588261;40;20138;-62
2021/07/22 04:00:58;;;;;;;9.10;8.02;;;;;;;14.18;68.55;99412.03;3587532;40;20134;-61
2021/07/22 04:03:27;;;;;;;11.23;8.73;;;;;;;14.16;68.90;99412.22;3587886;40;20055;-60
2021/07/22 04:05:56;;;;;;;10.77;8.52;;;;;;;14.15;68.68;99410.59;3588561;40;20286;-61
2021/07/22 04:08:24;;;;;;;10.35;8.82;;;;;;;14.18;68.75;99410.19;3588933;40;20290;-60
2021/07/22 04:11:12;;;;;;;10.73;8.73;;;;;;;14.31;69.01;99420.03;3588424;40;20122;-61
2021/07/22 04:13:56;;;;;;;12.15;8.57;;;;;;;14.38;68.63;99419.03;3587191;40;20036;-60
2021/07/22 04:16:44;;;;;;;10.38;8.95;;;;;;;14.33;68.32;99421.50;3588270;40;20394;-60
2021/07/22 04:19:33;;;;;;;9.35;8.25;;;;;;;14.31;68.39;99418.19;3577376;40;20040;-60
2021/07/22 04:22:12;;;;;;;9.88;8.15;;;;;;;14.38;68.46;99424.34;3587458;40;20037;-61
2021/07/22 04:24:47;;;;;;;9.23;7.90;;;;;;;14.38;67.97;99424.34;3587276;40;20102;-60
2021/07/22 04:27:28;;;;;;;12.00;9.05;;;;;;;14.38;68.01;99427.00;3588303;40;20052;-60
2021/07/22 04:30:07;;;;;;;11.82;8.55;;;;;;;14.37;67.93;99430.69;3588285;40;20382;-61
2021/07/22 04:32:57;;;;;;;11.25;8.40;;;;;;;14.47;68.49;99418.84;3587896;40;20048;-61
2021/07/22 04:35:47;;;;;;;12.13;8.65;;;;;;;14.52;68.17;99417.22;3587601;40;20044;-61
2021/07/22 04:38:29;;;;;;;12.25;8.15;;;;;;;14.59;68.29;99431.38;3588897;40;20048;-61
2021/07/22 04:41:20;;;;;;;10.02;7.50;;;;;;;14.70;67.86;99431.81;3589685;40;20053;-61
2021/07/22 04:44:11;;;;;;;11.68;7.88;;;;;;;14.91;67.93;99439.59;3586915;40;20036;-60
2021/07/22 04:47:12;;;;;;;10.43;7.65;;;;;;;15.00;67.49;99433.00;3584838;40;20055;-61
2021/07/22 04:49:56;;;;;;;12.25;8.95;;;;;;;15.10;66.85;99443.25;3589604;40;20051;-61
2021/07/22 04:52:28;;;;;;;14.63;8.82;;;;;;;15.22;66.51;99430.94;3590347;40;20395;-61
2021/07/22 04:55:06;;;;;;;14.30;8.40;;;;;;;15.34;66.01;99429.28;3590679;40;20056;-61
2021/07/22 04:57:34;;;;;;;9.80;7.60;;;;;;;15.39;66.05;99422.50;3589587;40;20362;-60
2021/07/22 05:00:06;;;;;;;11.50;9.02;;;;;;;15.52;65.91;99417.97;3589262;40;20041;-61
2021/07/22 05:03:00;;;;;;;9.48;8.52;;;;;;;15.63;65.22;99421.81;3589702;40;20150;-60
2021/07/22 05:05:35;;;;;;;11.15;7.65;;;;;;;15.64;64.75;99431.47;3588659;40;20397;-60
2021/07/22 05:08:23;;;;;;;12.43;9.68;;;;;;;15.63;64.29;99429.81;3588177;40;20050;-62
2021/07/22 05:11:17;;;;;;;12.18;8.73;;;;;;;15.58;64.48;99425.13;3588272;40;20089;-60
2021/07/22 05:13:57;;;;;;;9.93;7.50;;;;;;;15.66;64.41;99425.94;3588540;40;20090;-62
2021/07/22 05:16:47;;;;;;;9.52;8.07;;;;;;;15.78;64.79;99429.59;3589142;40;20045;-62
2021/07/22 05:19:24;;;;;;;12.75;7.95;;;;;;;15.90;64.25;99424.44;3588086;40;20047;-61
2021/07/22 05:22:08;;;;;;;11.25;8.27;;;;;;;15.92;63.71;99428.53;3588427;40;20060;-61
2021/07/22 05:24:49;;;;;;;11.23;7.15;;;;;;;15.84;63.28;99428.78;3588350;40;20052;-61
2021/07/22 05:27:45;;;;;;;14.27;8.38;;;;;;;15.85;64.00;99425.06;3582577;40;20060;-60
2021/07/22 05:30:45;;;;;;;9.52;7.43;;;;;;;15.81;63.48;99437.19;3577504;40;20040;-61
2021/07/22 05:33:20;;;;;;;8.68;7.38;;;;;;;15.83;63.63;99432.44;3589476;40;20048;-61
2021/07/22 05:36:10;;;;;;;10.38;8.40;;;;;;;15.98;63.99;99437.53;3588629;40;20044;-61
2021/07/22 05:38:58;;;;;;;10.10;7.90;;;;;;;16.15;63.38;99440.50;3589835;40;20048;-60
2021/07/22 05:41:25;;;;;;;10.63;8.43;;;;;;;15.96;63.53;99445.75;3589723;40;20376;-62
2021/07/22 05:43:53;;;;;;;12.07;8.75;;;;;;;16.04;63.73;99437.50;3589748;40;20142;-60
2021/07/22 05:46:22;;;;;;;11.70;9.50;;;;;;;16.21;63.31;99440.50;3589517;40;20390;-60
2021/07/22 05:48:51;;;;;;;16.35;9.13;;;;;;;16.24;62.85;99433.88;3589041;40;20431;-60
2021/07/22 05:51:19;;;;;;;12.15;8.88;;;;;;;16.22;62.85;99435.97;3588031;40;20120;-59
2021/07/22 05:53:47;;;;;;;14.65;9.90;;;;;;;16.24;63.57;99445.38;3589098;40;20055;-60
2021/07/22 05:56:18;;;;;;;13.10;9.98;;;;;;;16.41;63.34;99447.53;3589131;40;20347;-60
2021/07/22 05:58:46;;;;;;;10.77;9.70;;;;;;;16.42;62.64;99447.34;3587803;40;20048;-61
2021/07/22 06:01:14;;;;;;;13.00;9.32;;;;;;;16.53;63.02;99441.31;3589087;40;20133;-60
2021/07/22 06:03:42;;;;;;;12.50;7.75;;;;;;;16.65;62.95;99448.63;3588950;40;20086;-61
2021/07/22 06:06:12;;;;;;;9.40;8.25;;;;;;;16.76;62.45;99442.63;3588894;40;20060;-62
2021/07/22 06:08:40;;;;;;;12.48;9.88;;;;;;;16.94;61.74;99442.69;3587933;40;20048;-61
2021/07/22 06:11:08;;;;;;;10.40;8.13;;;;;;;16.96;62.21;99445.94;3588305;40;20052;-60
2021/07/22 06:13:36;;;;;;;15.13;10.93;;;;;;;17.11;62.12;99440.28;3589623;40;20051;-60
2021/07/22 06:16:09;;;;;;;14.00;10.05;;;;;;;17.32;61.54;99452.41;3589093;40;20401;-60
2021/07/22 06:18:37;;;;;;;14.27;11.03;;;;;;;17.42;60.77;99434.00;3587819;40;20057;-60
2021/07/22 06:21:05;;;;;;;21.58;12.80;;;;;;;17.42;60.25;99435.88;3588974;40;20130;-60
2021/07/22 06:23:35;;;;;;;16.10;10.70;;;;;;;17.47;60.89;99439.53;3589136;40;20044;-60
2021/07/22 06:26:03;;;;;;;15.05;10.00;;;;;;;17.63;60.20;99438.09;3588950;40;20102;-60
2021/07/22 06:28:31;;;;;;;15.10;10.18;;;;;;;17.78;60.07;99437.75;3589029;40;20052;-60
2021/07/22 06:30:58;;;;;;;10.90;8.30;;;;;;;17.89;59.77;99442.38;3589154;40;20076;-60
2021/07/22 06:33:41;;;;;;;11.70;7.28;;;;;;;17.96;59.35;99434.25;3588300;40;20041;-60
2021/07/22 06:36:09;;;;;;;9.48;8.10;;;;;;;18.02;59.07;99444.06;3558979;40;20050;-70
2021/07/22 06:38:38;;;;;;;10.60;8.57;;;;;;;18.09;58.40;99444.00;3551714;40;20392;-70
2021/07/22 06:41:06;;;;;;;11.85;8.85;;;;;;;18.12;58.20;99438.97;3552336;40;20065;-69
2021/07/22 06:43:34;;;;;;;10.18;7.43;;;;;;;18.19;58.62;99436.22;3552210;40;20124;-69
2021/07/22 06:46:03;;;;;;;8.43;7.53;;;;;;;18.28;57.87;99438.34;3552457;40;20050;-70
2021/07/22 06:48:31;;;;;;;11.77;9.30;;;;;;;18.37;57.75;99438.03;3550956;40;20124;-68
2021/07/22 06:51:02;;;;;;;15.75;9.23;;;;;;;18.35;56.81;99443.63;3549707;40;20393;-69
2021/07/22 06:53:29;;;;;;;10.63;8.25;;;;;;;18.34;57.60;99443.84;3550741;40;20083;-69
2021/07/22 06:55:58;;;;;;;9.73;8.02;;;;;;;18.42;57.77;99436.31;3550498;40;20042;-69
2021/07/22 06:58:26;;;;;;;14.30;8.57;;;;;;;18.61;57.76;99441.59;3549598;40;20083;-69
2021/07/22 07:00:54;;;;;;;11.60;8.43;;;;;;;18.72;57.56;99430.94;3548848;40;20053;-69
2021/07/22 07:03:22;;;;;;;16.30;9.93;;;;;;;18.85;56.63;99431.75;3549577;40;20070;-71
2021/07/22 07:05:50;;;;;;;14.38;8.98;;;;;;;18.86;56.65;99431.56;3550761;40;20051;-71
2021/07/22 07:08:18;;;;;;;13.20;8.60;;;;;;;18.87;56.59;99435.03;3550006;40;20415;-69
2021/07/22 07:10:46;;;;;;;12.68;9.07;;;;;;;19.01;56.57;99439.13;3550037;40;20091;-69
2021/07/22 07:13:15;;;;;;;16.67;9.38;;;;;;;19.15;56.38;99429.00;3550113;40;20061;-69
2021/07/22 07:15:43;;;;;;;9.98;8.95;;;;;;;19.18;56.31;99436.56;3549523;40;20054;-69
2021/07/22 07:18:11;;;;;;;13.73;8.82;;;;;;;19.16;56.04;99428.75;3548806;40;20484;-70
2021/07/22 07:20:38;;;;;;;12.48;9.82;;;;;;;19.10;56.43;99434.22;3549729;40;20109;-69
2021/07/22 07:23:06;;;;;;;10.23;8.30;;;;;;;19.20;56.17;99434.47;3548777;40;20047;-69
2021/07/22 07:25:34;;;;;;;13.88;7.97;;;;;;;19.23;56.40;99429.47;3549268;40;20105;-70
2021/07/22 07:28:02;;;;;;;12.43;7.80;;;;;;;19.35;56.67;99429.47;3549426;40;20050;-68
2021/07/22 07:30:31;;;;;;;12.10;7.57;;;;;;;19.53;56.28;99428.50;3548718;40;20129;-69
2021/07/22 07:32:59;;;;;;;14.65;8.77;;;;;;;19.71;55.99;99428.38;3549907;40;20047;-69
2021/07/22 07:35:27;;;;;;;10.45;7.63;;;;;;;19.80;55.44;99420.78;3550551;40;20402;-68
2021/07/22 07:37:55;;;;;;;21.73;9.75;;;;;;;19.96;55.34;99422.72;3551482;40;20054;-68
2021/07/22 07:40:23;;;;;;;9.75;7.60;;;;;;;20.12;55.07;99423.81;3548871;40;20392;-69
2021/07/22 07:42:52;;;;;;;10.38;7.88;;;;;;;20.16;54.85;99419.59;3550033;40;20077;-69
2021/07/22 07:45:20;;;;;;;11.13;7.40;;;;;;;20.25;54.63;99417.38;3549317;40;20045;-69
2021/07/22 07:47:49;;;;;;;12.55;8.55;;;;;;;20.31;55.00;99423.63;3548845;40;20050;-69
2021/07/22 07:50:17;;;;;;;10.35;7.28;;;;;;;20.44;54.77;99412.56;3549740;40;20050;-70
2021/07/22 07:52:45;;;;;;;11.23;8.35;;;;;;;20.63;54.62;99415.91;3549891;40;20061;-70
2021/07/22 07:55:15;;;;;;;9.50;6.70;;;;;;;20.67;54.14;99417.03;3548660;40;20360;-70
2021/07/22 07:57:42;;;;;;;12.13;8.57;;;;;;;20.74;53.69;99415.81;3549379;40;20050;-69
2021/07/22 08:00:11;;;;;;;13.10;9.00;;;;;;;20.84;53.38;99412.47;3550108;40;20029;-70
2021/07/22 08:02:39;;;;;;;10.35;6.90;;;;;;;20.76;53.36;99410.19;3550305;40;20379;-69
2021/07/22 08:05:10;;;;;;;10.55;6.85;;;;;;;20.76;53.86;99411.00;3550567;40;20474;-70
2021/07/22 08:07:38;;;;;;;16.92;7.63;;;;;;;20.87;53.80;99414.69;3548753;40;20061;-70
2021/07/22 08:10:07;;;;;;;15.98;8.13;;;;;;;20.96;53.63;99407.00;3549396;40;20136;-70
2021/07/22 08:12:39;;;;;;;9.73;6.97;;;;;;;21.08;52.50;99401.56;3551433;40;20126;-69
2021/07/22 08:15:09;;;;;;;10.07;6.72;;;;;;;21.06;52.96;99406.34;3553226;40;20046;-69
2021/07/22 08:17:37;;;;;;;9.00;6.70;;;;;;;21.05;53.03;99397.47;3550365;40;20062;-69
2021/07/22 08:20:07;;;;;;;9.02;6.93;;;;;;;21.08;53.02;99388.91;3552881;40;20463;-69
2021/07/22 08:22:38;;;;;;;10.13;7.40;;;;;;;21.20;53.13;99396.88;3552262;40;20058;-69
2021/07/22 08:25:07;;;;;;;10.38;6.95;;;;;;;21.45;52.30;99399.13;3553083;40;20061;-69
2021/07/22 08:27:35;;;;;;;9.55;7.20;;;;;;;21.60;52.13;99391.28;3552475;40;20323;-69
2021/07/22 08:30:05;;;;;;;10.18;6.70;;;;;;;21.78;51.72;99387.44;3552134;40;20131;-68
2021/07/22 08:32:34;;;;;;;8.70;7.55;;;;;;;21.95;51.31;99390.03;3553874;40;20419;-68
2021/07/22 08:35:02;;;;;;;8.88;7.97;;;;;;;22.14;51.17;99377.91;3553366;40;20046;-68
2021/07/22 08:37:30;;;;;;;10.93;7.50;;;;;;;22.17;50.31;99382.78;3550118;40;20057;-69
2021/07/22 08:40:03;;;;;;;8.55;6.65;;;;;;;22.14;50.19;99385.16;3551175;40;20050;-70
2021/07/22 08:42:35;;;;;;;7.97;6.60;;;;;;;22.16;50.27;99377.63;3551538;40;20137;-69
2021/07/22 08:45:04;;;;;;;6.57;5.65;;;;;;;22.16;49.27;99383.84;3551720;40;20077;-68
2021/07/22 08:47:32;;;;;;;9.35;5.40;;;;;;;22.24;48.71;99386.06;3555142;40;20053;-70
2021/07/22 08:50:01;;;;;;;7.53;6.00;;;;;;;22.36;47.87;99391.28;3555049;40;20053;-68
2021/07/22 08:52:29;;;;;;;7.85;5.90;;;;;;;22.30;47.89;99378.88;3554941;40;20082;-69
2021/07/22 08:54:59;;;;;;;9.70;6.85;;;;;;;22.33;48.54;99380.22;3555202;40;20424;-70
2021/07/22 08:57:31;;;;;;;9.93;6.72;;;;;;;22.50;48.38;99383.63;3553887;40;20307;-69
2021/07/22 09:00:00;;;;;;;9.30;6.55;;;;;;;22.62;47.70;99376.19;3562139;40;20309;-68
2021/07/22 09:02:29;;;;;;;11.35;6.45;;;;;;;22.72;47.22;99373.56;3553419;40;20046;-69
2021/07/22 09:04:59;;;;;;;8.68;5.80;;;;;;;22.78;46.61;99374.41;3552961;40;20055;-70
2021/07/22 09:07:28;;;;;;;7.10;6.40;;;;;;;22.91;46.40;99381.28;3553026;40;20412;-70
2021/07/22 09:10:18;;;;;;;8.93;6.50;;;;;;;22.93;46.84;99377.22;3551447;40;20050;-68
2021/07/22 09:12:49;;;;;;;7.40;5.60;;;;;;;22.95;45.67;99368.91;3551434;40;20502;-69
2021/07/22 09:15:25;;;;;;;6.55;5.70;;;;;;;22.84;45.71;99369.88;3552607;40;20050;-68
2021/07/22 09:18:20;;;;;;;9.93;6.28;;;;;;;23.06;45.80;99364.38;3553512;40;20050;-67
2021/07/22 09:20:48;;;;;;;7.88;6.07;;;;;;;23.18;45.86;99367.66;3554761;40;20090;-68
2021/07/22 09:23:19;;;;;;;8.10;5.35;;;;;;;23.09;45.27;99369.25;3553535;40;20388;-68
2021/07/22 09:25:49;;;;;;;6.95;5.57;;;;;;;22.94;45.21;99361.88;3553083;40;20053;-68
2021/07/22 09:28:19;;;;;;;7.18;6.30;;;;;;;23.15;45.73;99366.34;3553198;40;20054;-68
2021/07/22 09:30:58;;;;;;;6.07;5.47;;;;;;;23.32;44.99;99368.03;3552420;40;20042;-68
2021/07/22 09:33:37;;;;;;;10.88;7.53;;;;;;;23.51;44.46;99354.88;3551712;40;20058;-68
2021/07/22 09:36:06;;;;;;;9.90;6.40;;;;;;;23.63;43.48;99363.56;3549860;40;20058;-68
2021/07/22 09:38:34;;;;;;;7.68;5.72;;;;;;;23.60;42.74;99350.63;3549750;40;20053;-67
2021/07/22 09:41:04;;;;;;;8.85;6.00;;;;;;;23.66;42.83;99363.06;3549326;40;20054;-68
2021/07/22 09:43:37;;;;;;;6.88;6.18;;;;;;;23.81;42.80;99355.03;3549358;40;20404;-70
2021/07/22 09:46:05;;;;;;;8.27;6.53;;;;;;;23.98;41.17;99357.50;3549482;40;20066;-68
2021/07/22 09:48:33;;;;;;;6.65;5.70;;;;;;;;;;3549551;40;20084;-68
2021/07/22 09:51:01;;;;;;;7.55;5.63;;;;;;;23.96;40.16;99365.03;3550580;40;20057;-68
2021/07/22 09:53:29;;;;;;;7.95;5.55;;;;;;;24.00;40.83;99359.91;3550285;40;20121;-68
2021/07/22 09:55:58;;;;;;;6.47;5.75;;;;;;;24.08;40.65;99360.19;3551351;40;20050;-68
2021/07/22 09:58:30;;;;;;;6.97;5.82;;;;;;;24.16;40.18;99351.56;3549944;40;20042;-68
2021/07/22 10:01:01;;;;;;;7.22;5.80;;;;;;;24.27;40.22;99347.00;3550340;40;20132;-68
2021/07/22 10:03:31;;;;;;;9.15;6.50;;;;;;;24.39;39.68;99350.28;3550678;40;20086;-68
2021/07/22 10:06:05;;;;;;;8.70;6.72;;;;;;;24.48;39.91;99350.53;3550325;40;20073;-68
2021/07/22 10:08:35;;;;;;;12.77;6.55;;;;;;;24.59;39.85;99343.25;3551687;40;20061;-68
2021/07/22 10:11:05;;;;;;;8.45;5.88;;;;;;;24.60;38.78;99355.69;3551256;40;20048;-69
2021/07/22 10:13:38;;;;;;;5.85;5.25;;;;;;;24.39;39.48;99355.69;3551654;40;20054;-68
2021/07/22 10:16:09;;;;;;;8.85;5.93;;;;;;;24.48;39.39;99344.34;3551752;40;20408;-67
2021/07/22 10:18:44;;;;;;;9.23;6.35;;;;;;;24.59;39.21;99343.25;3551379;40;20086;-68
2021/07/22 10:21:12;;;;;;;6.72;6.05;;;;;;;24.61;39.32;99346.47;3551481;40;20046;-67
2021/07/22 10:23:41;;;;;;;7.75;5.82;;;;;;;24.40;39.12;99345.69;3549852;40;20046;-68
2021/07/22 10:26:09;;;;;;;6.80;6.20;;;;;;;24.47;39.13;99338.13;3550501;40;20046;-67
2021/07/22 10:28:39;;;;;;;7.78;6.00;;;;;;;24.59;39.28;99343.25;3550546;40;20058;-67
2021/07/22 10:31:08;;;;;;;7.60;6.13;;;;;;;24.64;39.07;99338.66;3550485;40;20104;-67
2021/07/22 10:33:40;;;;;;;7.10;5.75;;;;;;;24.75;38.72;99336.75;3550761;40;20124;-67
2021/07/22 10:36:09;;;;;;;6.65;6.05;;;;;;;24.67;38.30;99331.91;3551368;40;20058;-67
2021/07/22 10:38:44;;;;;;;8.13;6.55;;;;;;;24.70;38.50;99328.66;3549694;40;20050;-68
2021/07/22 10:41:35;;;;;;;8.70;6.75;;;;;;;24.58;38.25;99323.53;3550693;40;20072;-68
2021/07/22 10:44:06;;;;;;;9.98;7.45;;;;;;;24.67;38.21;99323.78;3550219;40;20050;-67
2021/07/22 10:46:53;;;;;;;14.35;7.20;;;;;;;24.87;38.38;99314.84;3549638;40;20046;-67
2021/07/22 10:49:35;;;;;;;7.00;6.28;;;;;;;24.98;38.46;99311.00;3548399;40;20392;-67
2021/07/22 10:52:03;;;;;;;6.85;6.20;;;;;;;25.22;37.88;99316.63;3548373;40;20054;-67
2021/07/22 10:54:47;;;;;;;7.28;6.57;;;;;;;25.39;37.55;99298.19;3548974;40;20050;-67
2021/07/22 10:57:38;;;;;;;6.90;6.20;;;;;;;25.32;37.48;99299.56;3548444;40;20327;-67
2021/07/22 11:00:10;;;;;;;7.45;5.90;;;;;;;25.20;37.91;99310.72;3549126;40;20042;-67
2021/07/22 11:02:46;;;;;;;8.32;6.22;;;;;;;25.24;37.73;99300.94;3549331;40;20126;-68
2021/07/22 11:05:56;;;;;;;8.43;6.47;;;;;;;24.98;37.65;99304.78;3549511;40;20035;-68
2021/07/22 11:08:26;;;;;;;9.45;6.43;;;;;;;24.93;38.11;99306.41;3529665;40;20077;-67
2021/07/22 11:10:56;;;;;;;6.95;6.25;;;;;;;24.83;38.03;99302.94;3549516;40;20026;-66
2021/07/22 11:13:47;;;;;;;7.18;6.25;;;;;;;24.83;38.61;99308.34;3548723;40;20058;-67
2021/07/22 11:16:25;;;;;;;9.55;6.25;;;;;;;24.99;37.94;99301.03;3549856;40;20054;-68
2021/07/22 11:18:57;;;;;;;8.75;7.07;;;;;;;25.13;37.44;99291.25;3548327;40;20046;-68
2021/07/22 11:21:27;;;;;;;7.13;5.80;;;;;;;25.18;38.28;99293.94;3548666;40;20065;-68
2021/07/22 11:23:57;;;;;;;7.53;6.68;;;;;;;25.43;37.56;99284.88;3549439;40;20297;-69
2021/07/22 11:26:28;;;;;;;7.70;6.82;;;;;;;25.49;37.35;99286.50;3549417;40;20400;-68
2021/07/22 11:29:12;;;;;;;7.18;5.65;;;;;;;25.48;38.04;99284.88;3549052;40;20137;-67
2021/07/22 11:31:44;;;;;;;6.93;6.20;;;;;;;25.53;36.77;99279.44;3549244;40;20050;-67
2021/07/22 11:34:12;;;;;;;11.52;6.63;;;;;;;25.61;37.02;99280.75;3549218;40;20054;-67
2021/07/22 11:36:40;;;;;;;9.10;6.70;;;;;;;25.75;36.59;99278.22;3549290;40;20046;-67
2021/07/22 11:39:09;;;;;;;7.75;6.18;;;;;;;25.82;36.21;99276.84;3549020;40;20038;-67
2021/07/22 11:41:38;;;;;;;7.28;6.50;;;;;;;25.80;36.38;99281.75;3549298;40;20043;-67
2021/07/22 11:44:07;;;;;;;8.55;5.57;;;;;;;25.63;36.92;99275.84;3548722;40;20050;-67
2021/07/22 11:46:38;;;;;;;10.35;7.60;;;;;;;25.78;36.82;99270.38;3549694;40;20331;-67
2021/07/22 11:49:09;;;;;;;7.85;6.35;;;;;;;26.04;36.11;99268.28;3557753;40;20053;-68
2021/07/22 11:51:37;;;;;;;8.70;6.95;;;;;;;25.95;35.98;99259.16;3549836;40;20050;-68
2021/07/22 11:54:05;;;;;;;7.65;6.88;;;;;;;25.84;36.28;99268.44;3550415;40;20047;-70